createdAt,value
2022-09-09T00:02:24.681Z,18.79
2022-09-09T00:07:48.203Z,18.74
2022-09-09T00:13:17.015Z,18.77
2022-09-09T00:18:31.200Z,18.70
2022-09-09T00:23:40.070Z,18.60
2022-09-09T00:29:01.501Z,18.36
2022-09-09T00:34:13.709Z,18.31
2022-09-09T00:39:52.968Z,18.30
2022-09-09T00:45:06.668Z,18.18
2022-09-09T00:50:35.871Z,18.08
2022-09-09T00:55:55.106Z,18.25
2022-09-09T01:00:58.879Z,18.29
2022-09-09T01:06:12.296Z,18.11
2022-09-09T01:11:31.965Z,17.92
2022-09-09T01:16:33.565Z,17.77
2022-09-09T01:21:56.565Z,17.77
2022-09-09T01:27:01.714Z,17.86
2022-09-09T01:32:24.333Z,17.91
2022-09-09T01:37:25.647Z,17.83
2022-09-09T01:42:26.994Z,17.87
2022-09-09T01:47:28.304Z,17.87
2022-09-09T01:52:31.378Z,17.93
2022-09-09T01:57:42.873Z,17.92
2022-09-09T02:03:29.409Z,17.86
2022-09-09T02:08:50.422Z,17.84
2022-09-09T02:14:00.614Z,17.90
2022-09-09T02:19:09.462Z,17.92
2022-09-09T02:24:13.846Z,17.89
2022-09-09T02:29:27.689Z,18.03
2022-09-09T02:34:31.858Z,17.94
2022-09-09T02:39:33.158Z,17.87
2022-09-09T02:44:34.966Z,18.02
2022-09-09T02:49:51.749Z,17.97
2022-09-09T02:55:00.735Z,18.07
2022-09-09T03:00:02.606Z,18.12
2022-09-09T03:05:04.253Z,18.04
2022-09-09T03:10:06.144Z,17.90
2022-09-09T03:15:08.384Z,18.00
2022-09-09T03:20:10.264Z,17.84
2022-09-09T03:25:11.529Z,17.71
2022-09-09T03:30:12.862Z,17.65
2022-09-09T03:35:14.291Z,17.87
2022-09-09T03:40:15.850Z,17.80
2022-09-09T03:45:17.906Z,17.73
2022-09-09T03:50:19.739Z,17.69
2022-09-09T03:55:21.004Z,17.76
2022-09-09T04:00:22.640Z,17.65
2022-09-09T04:05:24.049Z,17.51
2022-09-09T04:10:25.320Z,17.42
2022-09-09T04:15:26.543Z,17.55
2022-09-09T04:20:27.849Z,17.47
2022-09-09T04:25:29.632Z,17.43
2022-09-09T04:30:30.863Z,17.37
2022-09-09T04:35:32.104Z,17.50
2022-09-09T04:40:34.019Z,17.44
2022-09-09T04:45:35.465Z,17.36
2022-09-09T04:50:36.802Z,17.37
2022-09-09T04:55:38.598Z,17.39
2022-09-09T05:00:39.941Z,17.35
2022-09-09T05:05:41.275Z,17.37
2022-09-09T05:10:42.968Z,17.33
2022-09-09T05:15:52.825Z,17.41
2022-09-09T05:21:00.063Z,17.23
2022-09-09T05:26:02.284Z,17.28
2022-09-09T05:31:06.473Z,17.26
2022-09-09T05:36:11.660Z,17.33
2022-09-09T05:41:16.437Z,17.22
2022-09-09T05:46:20.310Z,17.31
2022-09-09T05:51:23.241Z,17.30
2022-09-09T05:56:26.232Z,17.31
2022-09-09T06:01:36.161Z,17.21
2022-09-09T06:06:40.742Z,17.20
2022-09-09T06:11:42.979Z,17.22
2022-09-09T06:16:45.019Z,17.38
2022-09-09T06:21:46.329Z,17.51
2022-09-09T06:26:47.878Z,17.47
2022-09-09T06:31:49.179Z,17.71
2022-09-09T06:36:50.560Z,17.71
2022-09-09T06:41:54.180Z,17.91
2022-09-09T06:46:55.923Z,18.04
2022-09-09T06:51:57.213Z,18.23
2022-09-09T06:56:58.508Z,18.22
2022-09-09T07:01:59.864Z,18.24
2022-09-09T07:07:01.941Z,18.49
2022-09-09T07:12:03.511Z,18.70
2022-09-09T07:17:04.777Z,18.52
2022-09-09T07:22:07.138Z,18.37
2022-09-09T07:27:08.436Z,18.36
2022-09-09T07:32:09.814Z,18.28
2022-09-09T07:37:12.601Z,18.27
2022-09-09T07:42:14.365Z,18.46
2022-09-09T07:47:15.716Z,18.53
2022-09-09T07:52:19.565Z,18.52
2022-09-09T07:57:22.470Z,18.71
2022-09-09T08:02:26.388Z,18.50
2022-09-09T08:07:27.963Z,18.37
2022-09-09T08:12:29.303Z,18.38
2022-09-09T08:17:30.556Z,18.54
2022-09-09T08:22:32.021Z,18.92
2022-09-09T08:27:33.715Z,19.14
2022-09-09T08:32:36.093Z,19.36
2022-09-09T08:37:37.427Z,19.64
2022-09-09T08:42:49.523Z,20.00
2022-09-09T08:48:16.389Z,20.26
2022-09-09T08:53:27.973Z,20.29
2022-09-09T08:58:32.651Z,20.32
2022-09-09T09:03:47.811Z,19.81
2022-09-09T09:08:59.165Z,19.73
2022-09-09T09:14:14.442Z,19.75
2022-09-09T09:19:17.519Z,19.90
2022-09-09T09:24:33.422Z,19.97
2022-09-09T09:29:50.561Z,19.73
2022-09-09T09:34:59.562Z,19.67
2022-09-09T09:40:14.275Z,19.76
2022-09-09T09:45:23.601Z,19.64
2022-09-09T09:50:24.879Z,19.40
2022-09-09T09:55:26.805Z,19.41
2022-09-09T10:00:28.073Z,19.29
2022-09-09T10:05:35.732Z,19.66
2022-09-09T10:11:15.919Z,19.86
2022-09-09T10:16:35.321Z,21.18
2022-09-09T10:21:53.035Z,23.09
2022-09-09T10:27:04.070Z,25.56
2022-09-09T10:32:20.854Z,25.72
2022-09-09T10:37:46.443Z,24.57
2022-09-09T10:42:47.726Z,27.10
2022-09-09T10:48:04.526Z,24.04
2022-09-09T10:53:24.704Z,22.45
2022-09-09T10:58:40.228Z,21.63
2022-09-09T11:03:43.774Z,21.14
2022-09-09T11:08:46.299Z,21.36
2022-09-09T11:13:55.161Z,29.07
2022-09-09T11:19:04.244Z,32.17
2022-09-09T11:24:18.829Z,29.23
2022-09-09T11:29:35.177Z,31.52
2022-09-09T11:34:54.462Z,29.17
2022-09-09T11:40:13.758Z,25.54
2022-09-09T11:45:25.282Z,31.65
2022-09-09T11:50:26.497Z,29.10
2022-09-09T11:55:35.554Z,31.73
2022-09-09T12:00:42.385Z,27.19
2022-09-09T12:05:46.831Z,24.47
2022-09-09T12:11:00.559Z,23.60
2022-09-09T12:16:03.447Z,27.35
2022-09-09T12:21:23.633Z,27.44
2022-09-09T12:26:48.675Z,25.20
2022-09-09T12:32:11.120Z,24.74
2022-09-09T12:37:24.962Z,23.71
2022-09-09T12:42:27.661Z,22.69
2022-09-09T12:47:42.385Z,22.21
2022-09-09T12:52:44.402Z,21.73
2022-09-09T12:57:46.650Z,19.65
2022-09-09T13:02:53.933Z,19.35
2022-09-09T13:08:05.834Z,19.86
2022-09-09T13:13:32.753Z,20.29
2022-09-09T13:18:41.103Z,20.56
2022-09-09T13:23:42.483Z,20.78
2022-09-09T13:28:43.975Z,20.83
2022-09-09T13:33:45.523Z,20.99
2022-09-09T13:38:52.571Z,21.34
2022-09-09T13:43:56.075Z,21.37
2022-09-09T13:49:17.578Z,21.50
2022-09-09T13:54:20.653Z,22.05
2022-09-09T13:59:22.308Z,22.03
2022-09-09T14:04:23.644Z,21.94
2022-09-09T14:09:24.901Z,22.00
2022-09-09T14:14:26.644Z,21.46
2022-09-09T14:19:27.912Z,21.28
2022-09-09T14:24:29.218Z,21.17
2022-09-09T14:29:30.552Z,20.84
2022-09-09T14:34:33.243Z,20.88
2022-09-09T14:39:34.576Z,20.81
2022-09-09T14:44:35.891Z,20.88
2022-09-09T14:49:39.096Z,20.81
2022-09-09T14:54:41.912Z,20.63
2022-09-09T14:59:43.253Z,20.61
2022-09-09T15:04:45.174Z,20.66
2022-09-09T15:09:48.521Z,20.62
2022-09-09T15:14:51.268Z,20.58
2022-09-09T15:19:53.106Z,20.62
2022-09-09T15:24:54.427Z,20.45
2022-09-09T15:29:55.740Z,20.36
2022-09-09T15:34:56.981Z,20.53
2022-09-09T15:39:59.680Z,20.60
2022-09-09T15:45:01.112Z,20.61
2022-09-09T15:50:02.423Z,20.50
2022-09-09T15:55:04.036Z,20.36
2022-09-09T16:00:06.912Z,20.16
2022-09-09T16:05:08.533Z,20.09
2022-09-09T16:10:10.466Z,20.07
2022-09-09T16:15:11.834Z,20.00
2022-09-09T16:20:13.096Z,19.84
2022-09-09T16:25:15.585Z,19.83
2022-09-09T16:30:16.982Z,19.64
2022-09-09T16:35:20.361Z,19.61
2022-09-09T16:40:21.713Z,19.56
2022-09-09T16:45:23.031Z,19.50
2022-09-09T16:50:24.413Z,19.40
2022-09-09T16:55:27.025Z,19.30
2022-09-09T17:00:28.496Z,19.28
2022-09-09T17:05:30.009Z,19.13
2022-09-09T17:10:31.475Z,19.06
2022-09-09T17:15:32.904Z,18.99
2022-09-09T17:20:46.436Z,18.96
2022-09-09T17:25:57.937Z,18.90
2022-09-09T17:31:03.620Z,18.91
2022-09-09T17:36:17.026Z,18.92
2022-09-09T17:41:24.468Z,18.82
2022-09-09T17:46:32.584Z,18.82
2022-09-09T17:51:35.420Z,18.81
2022-09-09T17:56:38.697Z,18.77
2022-09-09T18:01:45.326Z,18.74
2022-09-09T18:06:49.056Z,18.69
2022-09-09T18:11:54.189Z,18.73
2022-09-09T18:16:55.856Z,18.67
2022-09-09T18:22:00.400Z,18.64
2022-09-09T18:27:04.295Z,18.59
2022-09-09T18:32:07.919Z,18.47
2022-09-09T18:37:10.069Z,18.24
2022-09-09T18:42:12.047Z,18.28
2022-09-09T18:47:13.318Z,18.28
2022-09-09T18:52:15.006Z,18.26
2022-09-09T18:57:16.455Z,18.27
2022-09-09T19:02:17.709Z,18.18
2022-09-09T19:07:20.419Z,18.19
2022-09-09T19:12:22.091Z,18.11
2022-09-09T19:17:23.575Z,17.88
2022-09-09T19:22:25.821Z,17.86
2022-09-09T19:27:27.488Z,17.81
2022-09-09T19:32:52.191Z,17.56
2022-09-09T19:37:50.088Z,17.47
2022-09-09T19:42:53.392Z,17.39
2022-09-09T19:47:54.666Z,17.39
2022-09-09T19:52:56.095Z,17.23
2022-09-09T19:57:57.340Z,17.14
2022-09-09T20:03:18.250Z,17.06
2022-09-09T20:08:19.981Z,17.01
2022-09-09T20:13:21.372Z,17.03
2022-09-09T20:18:23.040Z,16.90
2022-09-09T20:23:24.387Z,16.81
2022-09-09T20:28:25.752Z,16.86
2022-09-09T20:33:27.014Z,16.95
2022-09-09T20:38:28.286Z,16.83
2022-09-09T20:43:29.601Z,16.88
2022-09-09T20:48:34.392Z,16.78
2022-09-09T20:53:35.764Z,16.66
2022-09-09T20:58:37.242Z,16.68
2022-09-09T21:03:39.049Z,16.55
2022-09-09T21:08:41.126Z,16.63
2022-09-09T21:13:42.469Z,16.55
2022-09-09T21:18:44.297Z,16.51
2022-09-09T21:23:45.760Z,16.22
2022-09-09T21:28:47.033Z,16.09
2022-09-09T21:33:48.288Z,16.26
2022-09-09T21:38:50.346Z,16.40
2022-09-09T21:43:53.889Z,16.42
2022-09-09T21:48:58.016Z,16.28
2022-09-09T21:53:59.381Z,16.22
2022-09-09T21:59:03.956Z,16.29
2022-09-09T22:04:05.244Z,16.05
2022-09-09T22:09:06.513Z,16.13
2022-09-09T22:14:07.777Z,16.04
2022-09-09T22:19:09.114Z,15.88
2022-09-09T22:24:11.870Z,15.72
2022-09-09T22:29:13.230Z,15.71
2022-09-09T22:34:14.567Z,15.73
2022-09-09T22:39:15.914Z,15.80
2022-09-09T22:44:17.923Z,15.76
2022-09-09T22:49:19.958Z,15.72
2022-09-09T22:54:24.299Z,15.67
2022-09-09T22:59:26.430Z,15.71
2022-09-09T23:04:27.800Z,15.70
2022-09-09T23:09:29.271Z,15.66
2022-09-09T23:14:31.998Z,15.66
2022-09-09T23:19:33.321Z,15.67
2022-09-09T23:24:35.012Z,15.84
2022-09-09T23:29:36.396Z,15.83
2022-09-09T23:34:38.383Z,16.04
2022-09-09T23:39:43.388Z,15.99
2022-09-09T23:44:45.459Z,16.11
2022-09-09T23:49:48.845Z,16.00
2022-09-09T23:54:50.076Z,15.96
2022-09-09T23:59:51.323Z,15.96
